sensor_id;sensor_type;location;lat;lon;timestamp;temperature;humidity
14079;DHT22;7115;50.150;8.568;2023-02-21T00:02:34;9.70;99.90
14079;DHT22;7115;50.150;8.568;2023-02-21T00:05:20;9.60;99.90
14079;DHT22;7115;50.150;8.568;2023-02-21T00:08:05;9.60;99.90
14079;DHT22;7115;50.150;8.568;2023-02-21T00:10:51;9.50;99.90
14079;DHT22;7115;50.150;8.568;2023-02-21T00:13:38;9.40;99.90
14079;DHT22;7115;50.150;8.568;2023-02-21T00:16:23;9.40;99.90
14079;DHT22;7115;50.150;8.568;2023-02-21T00:19:09;9.30;99.90
14079;DHT22;7115;50.150;8.568;2023-02-21T00:21:55;9.30;99.90
14079;DHT22;7115;50.150;8.568;2023-02-21T00:24:40;9.30;99.90
14079;DHT22;7115;50.150;8.568;2023-02-21T00:27:26;9.30;99.90
14079;DHT22;7115;50.150;8.568;2023-02-21T00:30:14;9.30;99.90
14079;DHT22;7115;50.150;8.568;2023-02-21T00:33:00;9.30;99.90
14079;DHT22;7115;50.150;8.568;2023-02-21T00:35:46;9.20;99.90
14079;DHT22;7115;50.150;8.568;2023-02-21T00:38:31;9.20;99.90
14079;DHT22;7115;50.150;8.568;2023-02-21T00:41:17;9.10;99.90
14079;DHT22;7115;50.150;8.568;2023-02-21T00:44:02;9.00;99.90
14079;DHT22;7115;50.150;8.568;2023-02-21T00:46:48;9.00;99.90
14079;DHT22;7115;50.150;8.568;2023-02-21T00:49:34;8.90;99.90
14079;DHT22;7115;50.150;8.568;2023-02-21T00:52:19;8.90;99.90
14079;DHT22;7115;50.150;8.568;2023-02-21T00:55:05;8.80;99.90
14079;DHT22;7115;50.150;8.568;2023-02-21T00:57:51;8.60;99.90
14079;DHT22;7115;50.150;8.568;2023-02-21T01:00:37;8.70;99.90
14079;DHT22;7115;50.150;8.568;2023-02-21T01:03:24;8.60;99.90
14079;DHT22;7115;50.150;8.568;2023-02-21T01:06:10;8.40;99.90
14079;DHT22;7115;50.150;8.568;2023-02-21T01:08:56;8.30;99.90
14079;DHT22;7115;50.150;8.568;2023-02-21T01:11:42;8.30;99.90
14079;DHT22;7115;50.150;8.568;2023-02-21T01:14:27;8.20;99.90
14079;DHT22;7115;50.150;8.568;2023-02-21T01:17:13;8.10;99.90
14079;DHT22;7115;50.150;8.568;2023-02-21T01:20:00;8.00;99.90
14079;DHT22;7115;50.150;8.568;2023-02-21T01:22:46;8.00;99.90
14079;DHT22;7115;50.150;8.568;2023-02-21T01:25:31;8.00;99.90
14079;DHT22;7115;50.150;8.568;2023-02-21T01:28:17;8.00;99.90
14079;DHT22;7115;50.150;8.568;2023-02-21T01:31:03;8.00;99.90
14079;DHT22;7115;50.150;8.568;2023-02-21T01:33:48;8.30;99.90
14079;DHT22;7115;50.150;8.568;2023-02-21T01:36:35;8.30;99.90
14079;DHT22;7115;50.150;8.568;2023-02-21T01:39:21;8.30;99.90
14079;DHT22;7115;50.150;8.568;2023-02-21T01:42:08;8.20;99.90
14079;DHT22;7115;50.150;8.568;2023-02-21T01:45:40;8.10;99.90
14079;DHT22;7115;50.150;8.568;2023-02-21T01:48:28;8.10;99.90
14079;DHT22;7115;50.150;8.568;2023-02-21T01:51:18;8.00;99.90
14079;DHT22;7115;50.150;8.568;2023-02-21T01:54:07;8.00;99.90
14079;DHT22;7115;50.150;8.568;2023-02-21T01:56:54;8.00;99.90
14079;DHT22;7115;50.150;8.568;2023-02-21T01:59:40;7.90;99.90
14079;DHT22;7115;50.150;8.568;2023-02-21T02:02:30;7.90;99.90
14079;DHT22;7115;50.150;8.568;2023-02-21T02:05:17;7.90;99.90
14079;DHT22;7115;50.150;8.568;2023-02-21T02:08:02;7.90;99.90
14079;DHT22;7115;50.150;8.568;2023-02-21T02:10:54;7.90;99.90
14079;DHT22;7115;50.150;8.568;2023-02-21T02:14:00;7.90;99.90
14079;DHT22;7115;50.150;8.568;2023-02-21T02:16:38;7.80;99.90
14079;DHT22;7115;50.150;8.568;2023-02-21T02:19:29;7.80;99.90
14079;DHT22;7115;50.150;8.568;2023-02-21T02:22:45;7.70;99.90
14079;DHT22;7115;50.150;8.568;2023-02-21T02:25:27;7.70;99.90
14079;DHT22;7115;50.150;8.568;2023-02-21T02:28:15;7.70;99.90
14079;DHT22;7115;50.150;8.568;2023-02-21T02:34:20;7.60;99.90
14079;DHT22;7115;50.150;8.568;2023-02-21T02:36:50;7.60;99.90
14079;DHT22;7115;50.150;8.568;2023-02-21T02:39:23;7.60;99.90
14079;DHT22;7115;50.150;8.568;2023-02-21T02:42:03;7.60;99.90
14079;DHT22;7115;50.150;8.568;2023-02-21T02:44:36;7.60;99.90
14079;DHT22;7115;50.150;8.568;2023-02-21T02:47:07;7.60;99.90
14079;DHT22;7115;50.150;8.568;2023-02-21T02:49:40;7.60;99.90
14079;DHT22;7115;50.150;8.568;2023-02-21T02:52:09;7.70;99.90
14079;DHT22;7115;50.150;8.568;2023-02-21T02:54:36;7.60;99.90
14079;DHT22;7115;50.150;8.568;2023-02-21T02:57:05;7.60;99.90
14079;DHT22;7115;50.150;8.568;2023-02-21T02:59:38;7.60;99.90
14079;DHT22;7115;50.150;8.568;2023-02-21T03:02:31;7.60;99.90
14079;DHT22;7115;50.150;8.568;2023-02-21T03:05:14;7.60;99.90
14079;DHT22;7115;50.150;8.568;2023-02-21T03:07:49;7.70;99.90
14079;DHT22;7115;50.150;8.568;2023-02-21T03:10:22;7.70;99.90
14079;DHT22;7115;50.150;8.568;2023-02-21T03:12:54;7.70;99.90
14079;DHT22;7115;50.150;8.568;2023-02-21T03:15:31;7.70;99.90
14079;DHT22;7115;50.150;8.568;2023-02-21T03:18:02;7.70;99.90
14079;DHT22;7115;50.150;8.568;2023-02-21T03:20:34;7.60;99.90
14079;DHT22;7115;50.150;8.568;2023-02-21T03:23:03;7.60;99.90
14079;DHT22;7115;50.150;8.568;2023-02-21T03:25:32;7.60;99.90
14079;DHT22;7115;50.150;8.568;2023-02-21T03:28:00;7.70;99.90
14079;DHT22;7115;50.150;8.568;2023-02-21T03:30:28;7.70;99.90
14079;DHT22;7115;50.150;8.568;2023-02-21T03:32:56;7.70;99.90
14079;DHT22;7115;50.150;8.568;2023-02-21T03:35:27;7.70;99.90
14079;DHT22;7115;50.150;8.568;2023-02-21T03:37:58;7.70;99.90
14079;DHT22;7115;50.150;8.568;2023-02-21T03:40:27;7.80;99.90
14079;DHT22;7115;50.150;8.568;2023-02-21T03:42:55;7.80;99.90
14079;DHT22;7115;50.150;8.568;2023-02-21T03:45:23;7.90;99.90
14079;DHT22;7115;50.150;8.568;2023-02-21T03:47:49;7.90;99.90
14079;DHT22;7115;50.150;8.568;2023-02-21T03:50:17;7.90;99.90
14079;DHT22;7115;50.150;8.568;2023-02-21T03:52:44;8.00;99.90
14079;DHT22;7115;50.150;8.568;2023-02-21T03:55:12;8.00;99.90
14079;DHT22;7115;50.150;8.568;2023-02-21T03:57:39;8.00;99.90
14079;DHT22;7115;50.150;8.568;2023-02-21T04:00:07;7.90;99.90
14079;DHT22;7115;50.150;8.568;2023-02-21T04:02:34;7.90;99.90
14079;DHT22;7115;50.150;8.568;2023-02-21T04:05:01;7.90;99.90
14079;DHT22;7115;50.150;8.568;2023-02-21T04:07:28;7.80;99.90
14079;DHT22;7115;50.150;8.568;2023-02-21T04:09:55;7.80;99.90
14079;DHT22;7115;50.150;8.568;2023-02-21T04:12:23;7.70;99.90
14079;DHT22;7115;50.150;8.568;2023-02-21T04:14:50;7.70;99.90
14079;DHT22;7115;50.150;8.568;2023-02-21T04:17:18;7.70;99.90
14079;DHT22;7115;50.150;8.568;2023-02-21T04:19:45;7.70;99.90
14079;DHT22;7115;50.150;8.568;2023-02-21T04:22:12;7.70;99.90
14079;DHT22;7115;50.150;8.568;2023-02-21T04:24:39;7.70;99.90
14079;DHT22;7115;50.150;8.568;2023-02-21T04:27:06;7.70;99.90
14079;DHT22;7115;50.150;8.568;2023-02-21T04:29:34;7.70;99.90
14079;DHT22;7115;50.150;8.568;2023-02-21T04:32:01;7.70;99.90
14079;DHT22;7115;50.150;8.568;2023-02-21T04:34:28;7.70;99.90
14079;DHT22;7115;50.150;8.568;2023-02-21T04:36:55;7.60;99.90
14079;DHT22;7115;50.150;8.568;2023-02-21T04:39:22;7.60;99.90
14079;DHT22;7115;50.150;8.568;2023-02-21T04:41:49;7.60;99.90
14079;DHT22;7115;50.150;8.568;2023-02-21T04:44:16;7.50;99.90
14079;DHT22;7115;50.150;8.568;2023-02-21T04:46:45;7.40;99.90
14079;DHT22;7115;50.150;8.568;2023-02-21T04:49:12;7.40;99.90
14079;DHT22;7115;50.150;8.568;2023-02-21T04:51:39;7.30;99.90
14079;DHT22;7115;50.150;8.568;2023-02-21T04:54:06;7.20;99.90
14079;DHT22;7115;50.150;8.568;2023-02-21T04:56:33;7.10;99.90
14079;DHT22;7115;50.150;8.568;2023-02-21T04:59:00;7.10;99.90
14079;DHT22;7115;50.150;8.568;2023-02-21T05:01:28;7.00;99.90
14079;DHT22;7115;50.150;8.568;2023-02-21T05:03:58;6.90;99.90
14079;DHT22;7115;50.150;8.568;2023-02-21T05:06:27;6.90;99.90
14079;DHT22;7115;50.150;8.568;2023-02-21T05:08:54;6.80;99.90
14079;DHT22;7115;50.150;8.568;2023-02-21T05:11:22;6.80;99.90
14079;DHT22;7115;50.150;8.568;2023-02-21T05:13:49;6.70;99.90
14079;DHT22;7115;50.150;8.568;2023-02-21T05:16:18;6.70;99.90
14079;DHT22;7115;50.150;8.568;2023-02-21T05:18:47;6.70;99.90
14079;DHT22;7115;50.150;8.568;2023-02-21T05:21:17;6.70;99.90
14079;DHT22;7115;50.150;8.568;2023-02-21T05:23:45;6.70;99.90
14079;DHT22;7115;50.150;8.568;2023-02-21T05:26:25;6.70;99.90
14079;DHT22;7115;50.150;8.568;2023-02-21T05:28:52;6.80;99.90
14079;DHT22;7115;50.150;8.568;2023-02-21T05:31:20;6.80;99.90
14079;DHT22;7115;50.150;8.568;2023-02-21T05:33:47;6.80;99.90
14079;DHT22;7115;50.150;8.568;2023-02-21T05:36:15;6.80;99.90
14079;DHT22;7115;50.150;8.568;2023-02-21T05:38:44;6.80;99.90
14079;DHT22;7115;50.150;8.568;2023-02-21T05:41:12;6.80;99.90
14079;DHT22;7115;50.150;8.568;2023-02-21T05:43:41;6.90;99.90
14079;DHT22;7115;50.150;8.568;2023-02-21T05:46:17;6.80;99.90
14079;DHT22;7115;50.150;8.568;2023-02-21T05:48:44;6.80;99.90
14079;DHT22;7115;50.150;8.568;2023-02-21T05:51:11;6.80;99.90
14079;DHT22;7115;50.150;8.568;2023-02-21T05:53:40;6.90;99.90
14079;DHT22;7115;50.150;8.568;2023-02-21T05:56:07;6.90;99.90
14079;DHT22;7115;50.150;8.568;2023-02-21T05:58:36;6.90;99.90
14079;DHT22;7115;50.150;8.568;2023-02-21T06:01:03;7.00;99.90
14079;DHT22;7115;50.150;8.568;2023-02-21T06:03:30;7.00;99.90
14079;DHT22;7115;50.150;8.568;2023-02-21T06:05:57;7.00;99.90
14079;DHT22;7115;50.150;8.568;2023-02-21T06:08:24;7.00;99.90
14079;DHT22;7115;50.150;8.568;2023-02-21T06:10:53;7.10;99.90
14079;DHT22;7115;50.150;8.568;2023-02-21T06:13:20;7.10;99.90
14079;DHT22;7115;50.150;8.568;2023-02-21T06:15:46;7.10;99.90
14079;DHT22;7115;50.150;8.568;2023-02-21T06:18:14;7.10;99.90
14079;DHT22;7115;50.150;8.568;2023-02-21T06:20:41;7.20;99.90
14079;DHT22;7115;50.150;8.568;2023-02-21T06:23:09;7.20;99.90
14079;DHT22;7115;50.150;8.568;2023-02-21T06:25:36;7.20;99.90
14079;DHT22;7115;50.150;8.568;2023-02-21T06:28:04;7.20;99.90
14079;DHT22;7115;50.150;8.568;2023-02-21T06:30:31;7.30;99.90
14079;DHT22;7115;50.150;8.568;2023-02-21T06:32:58;7.30;99.90
14079;DHT22;7115;50.150;8.568;2023-02-21T06:35:24;7.30;99.90
14079;DHT22;7115;50.150;8.568;2023-02-21T06:37:51;7.40;99.90
14079;DHT22;7115;50.150;8.568;2023-02-21T06:40:18;7.40;99.90
14079;DHT22;7115;50.150;8.568;2023-02-21T06:42:45;7.40;99.90
14079;DHT22;7115;50.150;8.568;2023-02-21T06:45:14;7.50;99.90
14079;DHT22;7115;50.150;8.568;2023-02-21T06:47:40;7.50;99.90
14079;DHT22;7115;50.150;8.568;2023-02-21T06:50:07;7.60;99.90
14079;DHT22;7115;50.150;8.568;2023-02-21T06:52:36;7.70;99.90
14079;DHT22;7115;50.150;8.568;2023-02-21T06:55:03;7.70;99.90
14079;DHT22;7115;50.150;8.568;2023-02-21T06:57:30;7.70;99.90
14079;DHT22;7115;50.150;8.568;2023-02-21T06:59:57;7.80;99.90
14079;DHT22;7115;50.150;8.568;2023-02-21T07:02:25;7.80;99.90
14079;DHT22;7115;50.150;8.568;2023-02-21T07:04:52;7.70;99.90
14079;DHT22;7115;50.150;8.568;2023-02-21T07:07:19;7.70;99.90
14079;DHT22;7115;50.150;8.568;2023-02-21T07:09:46;7.70;99.90
14079;DHT22;7115;50.150;8.568;2023-02-21T07:12:13;7.70;99.90
14079;DHT22;7115;50.150;8.568;2023-02-21T07:14:39;7.70;99.90
14079;DHT22;7115;50.150;8.568;2023-02-21T07:17:06;7.70;99.90
14079;DHT22;7115;50.150;8.568;2023-02-21T07:19:34;7.80;99.90
14079;DHT22;7115;50.150;8.568;2023-02-21T07:22:01;7.70;99.90
14079;DHT22;7115;50.150;8.568;2023-02-21T07:24:28;7.70;99.90
14079;DHT22;7115;50.150;8.568;2023-02-21T07:26:55;7.60;99.90
14079;DHT22;7115;50.150;8.568;2023-02-21T07:29:23;7.50;99.90
14079;DHT22;7115;50.150;8.568;2023-02-21T07:31:50;7.40;99.90
14079;DHT22;7115;50.150;8.568;2023-02-21T07:34:17;7.40;99.90
14079;DHT22;7115;50.150;8.568;2023-02-21T07:36:47;7.30;99.90
14079;DHT22;7115;50.150;8.568;2023-02-21T07:39:14;7.20;99.90
14079;DHT22;7115;50.150;8.568;2023-02-21T07:41:40;7.20;99.90
14079;DHT22;7115;50.150;8.568;2023-02-21T07:44:08;7.30;99.90
14079;DHT22;7115;50.150;8.568;2023-02-21T07:46:35;7.30;99.90
14079;DHT22;7115;50.150;8.568;2023-02-21T07:49:02;7.30;99.90
14079;DHT22;7115;50.150;8.568;2023-02-21T07:51:30;7.30;99.90
14079;DHT22;7115;50.150;8.568;2023-02-21T07:53:58;7.30;99.90
14079;DHT22;7115;50.150;8.568;2023-02-21T07:56:25;7.40;99.90
14079;DHT22;7115;50.150;8.568;2023-02-21T07:58:52;7.40;99.90
14079;DHT22;7115;50.150;8.568;2023-02-21T08:01:21;7.60;99.90
14079;DHT22;7115;50.150;8.568;2023-02-21T08:03:48;7.70;99.90
14079;DHT22;7115;50.150;8.568;2023-02-21T08:06:16;7.80;99.90
14079;DHT22;7115;50.150;8.568;2023-02-21T08:08:44;7.90;99.90
14079;DHT22;7115;50.150;8.568;2023-02-21T08:11:12;8.00;99.90
14079;DHT22;7115;50.150;8.568;2023-02-21T08:13:40;8.00;99.90
14079;DHT22;7115;50.150;8.568;2023-02-21T08:16:06;8.00;99.90
14079;DHT22;7115;50.150;8.568;2023-02-21T08:18:33;8.10;99.90
14079;DHT22;7115;50.150;8.568;2023-02-21T08:21:00;8.10;99.90
14079;DHT22;7115;50.150;8.568;2023-02-21T08:23:27;8.20;99.90
14079;DHT22;7115;50.150;8.568;2023-02-21T08:25:54;8.30;99.90
14079;DHT22;7115;50.150;8.568;2023-02-21T08:28:22;8.50;99.90
14079;DHT22;7115;50.150;8.568;2023-02-21T08:30:49;8.70;99.90
14079;DHT22;7115;50.150;8.568;2023-02-21T08:33:16;8.90;99.90
14079;DHT22;7115;50.150;8.568;2023-02-21T08:35:43;9.00;99.90
14079;DHT22;7115;50.150;8.568;2023-02-21T08:38:10;9.20;99.90
14079;DHT22;7115;50.150;8.568;2023-02-21T08:40:37;9.30;99.90
14079;DHT22;7115;50.150;8.568;2023-02-21T08:43:04;9.50;99.90
14079;DHT22;7115;50.150;8.568;2023-02-21T08:45:32;9.80;99.90
14079;DHT22;7115;50.150;8.568;2023-02-21T08:47:59;10.00;99.90
14079;DHT22;7115;50.150;8.568;2023-02-21T08:50:27;10.00;99.90
14079;DHT22;7115;50.150;8.568;2023-02-21T08:52:55;10.10;99.90
14079;DHT22;7115;50.150;8.568;2023-02-21T08:55:22;10.10;99.90
14079;DHT22;7115;50.150;8.568;2023-02-21T08:57:51;10.00;99.90
14079;DHT22;7115;50.150;8.568;2023-02-21T09:00:21;10.00;99.90
14079;DHT22;7115;50.150;8.568;2023-02-21T09:02:58;10.00;99.90
14079;DHT22;7115;50.150;8.568;2023-02-21T09:05:29;10.10;99.90
14079;DHT22;7115;50.150;8.568;2023-02-21T09:07:58;10.30;99.90
14079;DHT22;7115;50.150;8.568;2023-02-21T09:10:28;10.40;99.90
14079;DHT22;7115;50.150;8.568;2023-02-21T09:12:56;10.60;99.90
14079;DHT22;7115;50.150;8.568;2023-02-21T09:15:23;10.70;99.90
14079;DHT22;7115;50.150;8.568;2023-02-21T09:17:50;10.90;99.90
14079;DHT22;7115;50.150;8.568;2023-02-21T09:20:22;10.90;99.90
14079;DHT22;7115;50.150;8.568;2023-02-21T09:22:49;10.80;99.90
14079;DHT22;7115;50.150;8.568;2023-02-21T09:25:20;10.70;99.90
14079;DHT22;7115;50.150;8.568;2023-02-21T09:27:48;10.50;99.90
14079;DHT22;7115;50.150;8.568;2023-02-21T09:30:19;10.40;99.90
14079;DHT22;7115;50.150;8.568;2023-02-21T09:32:47;10.30;99.90
14079;DHT22;7115;50.150;8.568;2023-02-21T09:35:14;10.20;99.90
14079;DHT22;7115;50.150;8.568;2023-02-21T09:37:43;10.10;99.90
14079;DHT22;7115;50.150;8.568;2023-02-21T09:40:15;10.10;99.90
14079;DHT22;7115;50.150;8.568;2023-02-21T09:42:43;10.10;99.90
14079;DHT22;7115;50.150;8.568;2023-02-21T09:45:14;10.20;99.90
14079;DHT22;7115;50.150;8.568;2023-02-21T09:47:42;10.20;99.90
14079;DHT22;7115;50.150;8.568;2023-02-21T09:50:13;10.30;99.90
14079;DHT22;7115;50.150;8.568;2023-02-21T09:52:42;10.40;99.90
14079;DHT22;7115;50.150;8.568;2023-02-21T09:55:18;10.50;99.90
14079;DHT22;7115;50.150;8.568;2023-02-21T09:57:47;10.50;99.90
14079;DHT22;7115;50.150;8.568;2023-02-21T10:00:20;10.50;99.90
14079;DHT22;7115;50.150;8.568;2023-02-21T10:02:58;10.50;99.90
14079;DHT22;7115;50.150;8.568;2023-02-21T10:05:34;10.50;99.90
14079;DHT22;7115;50.150;8.568;2023-02-21T10:08:13;10.60;99.90
14079;DHT22;7115;50.150;8.568;2023-02-21T10:10:45;10.70;99.90
14079;DHT22;7115;50.150;8.568;2023-02-21T10:13:24;10.70;99.90
14079;DHT22;7115;50.150;8.568;2023-02-21T10:15:59;10.70;99.90
14079;DHT22;7115;50.150;8.568;2023-02-21T10:18:36;10.80;99.90
14079;DHT22;7115;50.150;8.568;2023-02-21T10:21:11;10.90;99.90
14079;DHT22;7115;50.150;8.568;2023-02-21T10:23:43;11.00;99.90
14079;DHT22;7115;50.150;8.568;2023-02-21T10:26:17;11.10;99.90
14079;DHT22;7115;50.150;8.568;2023-02-21T10:28:45;11.10;99.90
14079;DHT22;7115;50.150;8.568;2023-02-21T10:31:16;11.10;99.90
14079;DHT22;7115;50.150;8.568;2023-02-21T10:33:45;11.10;99.90
14079;DHT22;7115;50.150;8.568;2023-02-21T10:36:14;11.20;99.90
14079;DHT22;7115;50.150;8.568;2023-02-21T10:38:50;11.20;99.90
14079;DHT22;7115;50.150;8.568;2023-02-21T10:41:20;11.20;99.90
14079;DHT22;7115;50.150;8.568;2023-02-21T10:43:51;11.30;99.90
14079;DHT22;7115;50.150;8.568;2023-02-21T10:46:22;11.40;99.90
14079;DHT22;7115;50.150;8.568;2023-02-21T10:48:53;11.50;99.90
14079;DHT22;7115;50.150;8.568;2023-02-21T10:51:29;11.60;99.90
14079;DHT22;7115;50.150;8.568;2023-02-21T10:54:16;11.80;99.90
14079;DHT22;7115;50.150;8.568;2023-02-21T10:56:44;12.00;99.90
14079;DHT22;7115;50.150;8.568;2023-02-21T10:59:19;12.20;99.90
14079;DHT22;7115;50.150;8.568;2023-02-21T11:01:46;12.30;99.90
14079;DHT22;7115;50.150;8.568;2023-02-21T11:04:24;12.40;99.90
14079;DHT22;7115;50.150;8.568;2023-02-21T11:06:54;12.50;99.90
14079;DHT22;7115;50.150;8.568;2023-02-21T11:09:31;12.80;99.90
14079;DHT22;7115;50.150;8.568;2023-02-21T11:12:00;13.10;99.90
14079;DHT22;7115;50.150;8.568;2023-02-21T11:14:30;13.50;99.90
14079;DHT22;7115;50.150;8.568;2023-02-21T11:17:13;13.80;99.90
14079;DHT22;7115;50.150;8.568;2023-02-21T11:19:52;13.90;99.90
14079;DHT22;7115;50.150;8.568;2023-02-21T11:22:21;14.20;99.90
14079;DHT22;7115;50.150;8.568;2023-02-21T11:24:56;14.50;99.90
14079;DHT22;7115;50.150;8.568;2023-02-21T11:27:26;14.80;99.90
14079;DHT22;7115;50.150;8.568;2023-02-21T11:29:54;15.10;99.90
14079;DHT22;7115;50.150;8.568;2023-02-21T11:32:27;15.50;99.90
14079;DHT22;7115;50.150;8.568;2023-02-21T11:35:21;15.90;99.90
14079;DHT22;7115;50.150;8.568;2023-02-21T11:37:52;16.40;99.90
14079;DHT22;7115;50.150;8.568;2023-02-21T11:40:27;16.50;99.90
14079;DHT22;7115;50.150;8.568;2023-02-21T11:43:12;16.50;99.90
14079;DHT22;7115;50.150;8.568;2023-02-21T11:45:48;16.50;99.90
14079;DHT22;7115;50.150;8.568;2023-02-21T11:48:18;16.50;99.90
14079;DHT22;7115;50.150;8.568;2023-02-21T11:50:49;16.40;99.90
14079;DHT22;7115;50.150;8.568;2023-02-21T11:53:21;16.30;99.90
14079;DHT22;7115;50.150;8.568;2023-02-21T11:55:54;16.10;99.90
14079;DHT22;7115;50.150;8.568;2023-02-21T11:58:26;16.10;99.90
14079;DHT22;7115;50.150;8.568;2023-02-21T12:01:01;16.00;99.90
14079;DHT22;7115;50.150;8.568;2023-02-21T12:03:53;15.80;99.90
14079;DHT22;7115;50.150;8.568;2023-02-21T12:06:29;15.70;99.90
14079;DHT22;7115;50.150;8.568;2023-02-21T12:09:01;15.70;99.90
14079;DHT22;7115;50.150;8.568;2023-02-21T12:11:40;15.70;99.90
14079;DHT22;7115;50.150;8.568;2023-02-21T12:14:18;15.70;99.90
14079;DHT22;7115;50.150;8.568;2023-02-21T12:16:57;15.60;99.90
14079;DHT22;7115;50.150;8.568;2023-02-21T12:19:37;15.60;99.90
14079;DHT22;7115;50.150;8.568;2023-02-21T12:22:17;15.60;99.90
14079;DHT22;7115;50.150;8.568;2023-02-21T12:24:53;15.60;99.90
14079;DHT22;7115;50.150;8.568;2023-02-21T12:27:29;15.70;99.90
14079;DHT22;7115;50.150;8.568;2023-02-21T12:30:27;15.70;99.90
14079;DHT22;7115;50.150;8.568;2023-02-21T12:33:15;15.70;99.90
14079;DHT22;7115;50.150;8.568;2023-02-21T12:36:14;15.70;99.90
14079;DHT22;7115;50.150;8.568;2023-02-21T12:38:53;15.60;99.90
14079;DHT22;7115;50.150;8.568;2023-02-21T12:41:56;15.60;99.90
14079;DHT22;7115;50.150;8.568;2023-02-21T12:44:35;15.60;99.90
14079;DHT22;7115;50.150;8.568;2023-02-21T12:47:11;15.70;99.90
14079;DHT22;7115;50.150;8.568;2023-02-21T12:49:43;15.70;99.90
14079;DHT22;7115;50.150;8.568;2023-02-21T12:52:15;15.80;99.90
14079;DHT22;7115;50.150;8.568;2023-02-21T12:54:54;15.90;99.90
14079;DHT22;7115;50.150;8.568;2023-02-21T12:57:29;16.10;99.90
14079;DHT22;7115;50.150;8.568;2023-02-21T13:00:10;16.30;99.90
14079;DHT22;7115;50.150;8.568;2023-02-21T13:02:57;16.50;99.90
14079;DHT22;7115;50.150;8.568;2023-02-21T13:05:32;16.80;99.90
14079;DHT22;7115;50.150;8.568;2023-02-21T13:08:06;17.10;99.90
14079;DHT22;7115;50.150;8.568;2023-02-21T13:10:45;17.30;99.90
14079;DHT22;7115;50.150;8.568;2023-02-21T13:13:18;17.60;99.90
14079;DHT22;7115;50.150;8.568;2023-02-21T13:15:48;17.80;99.70
14079;DHT22;7115;50.150;8.568;2023-02-21T13:18:18;18.00;99.50
14079;DHT22;7115;50.150;8.568;2023-02-21T13:20:51;18.10;99.30
14079;DHT22;7115;50.150;8.568;2023-02-21T13:23:40;18.00;99.10
14079;DHT22;7115;50.150;8.568;2023-02-21T13:26:50;17.90;99.00
14079;DHT22;7115;50.150;8.568;2023-02-21T13:29:23;18.00;99.00
14079;DHT22;7115;50.150;8.568;2023-02-21T13:31:58;17.90;99.00
14079;DHT22;7115;50.150;8.568;2023-02-21T13:34:28;17.80;98.90
14079;DHT22;7115;50.150;8.568;2023-02-21T13:37:00;17.80;98.90
14079;DHT22;7115;50.150;8.568;2023-02-21T13:39:30;17.90;98.90
14079;DHT22;7115;50.150;8.568;2023-02-21T13:42:06;18.00;98.80
14079;DHT22;7115;50.150;8.568;2023-02-21T13:44:36;18.00;99.10
14079;DHT22;7115;50.150;8.568;2023-02-21T13:47:09;18.10;98.60
14079;DHT22;7115;50.150;8.568;2023-02-21T13:49:40;18.10;98.50
14079;DHT22;7115;50.150;8.568;2023-02-21T13:55:25;18.00;98.40
14079;DHT22;7115;50.150;8.568;2023-02-21T14:00:54;17.80;98.50
14079;DHT22;7115;50.150;8.568;2023-02-21T14:03:31;17.70;98.50
14079;DHT22;7115;50.150;8.568;2023-02-21T14:06:27;17.70;98.80
14079;DHT22;7115;50.150;8.568;2023-02-21T14:08:57;17.70;98.50
14079;DHT22;7115;50.150;8.568;2023-02-21T14:11:28;17.60;98.50
14079;DHT22;7115;50.150;8.568;2023-02-21T14:13:59;17.60;98.60
14079;DHT22;7115;50.150;8.568;2023-02-21T14:16:32;17.60;98.60
14079;DHT22;7115;50.150;8.568;2023-02-21T14:19:02;17.70;98.50
14079;DHT22;7115;50.150;8.568;2023-02-21T14:21:34;17.80;98.50
14079;DHT22;7115;50.150;8.568;2023-02-21T14:24:05;17.90;98.40
14079;DHT22;7115;50.150;8.568;2023-02-21T14:26:40;17.90;98.30
14079;DHT22;7115;50.150;8.568;2023-02-21T14:29:29;17.90;98.30
14079;DHT22;7115;50.150;8.568;2023-02-21T14:32:15;18.00;98.10
14079;DHT22;7115;50.150;8.568;2023-02-21T14:34:52;18.10;98.10
14079;DHT22;7115;50.150;8.568;2023-02-21T14:37:23;18.10;98.00
14079;DHT22;7115;50.150;8.568;2023-02-21T14:39:52;18.00;98.00
14079;DHT22;7115;50.150;8.568;2023-02-21T14:42:33;17.90;98.00
14079;DHT22;7115;50.150;8.568;2023-02-21T14:45:22;17.90;98.10
14079;DHT22;7115;50.150;8.568;2023-02-21T14:48:05;17.90;98.00
14079;DHT22;7115;50.150;8.568;2023-02-21T14:50:49;17.80;98.00
14079;DHT22;7115;50.150;8.568;2023-02-21T14:53:51;17.80;98.10
14079;DHT22;7115;50.150;8.568;2023-02-21T14:56:44;17.90;98.10
14079;DHT22;7115;50.150;8.568;2023-02-21T14:59:42;17.90;98.00
14079;DHT22;7115;50.150;8.568;2023-02-21T15:02:20;18.00;98.00
14079;DHT22;7115;50.150;8.568;2023-02-21T15:04:54;18.10;98.00
14079;DHT22;7115;50.150;8.568;2023-02-21T15:07:29;18.10;97.90
14079;DHT22;7115;50.150;8.568;2023-02-21T15:10:18;18.20;97.80
14079;DHT22;7115;50.150;8.568;2023-02-21T15:12:49;18.10;97.80
14079;DHT22;7115;50.150;8.568;2023-02-21T15:15:21;18.10;97.80
14079;DHT22;7115;50.150;8.568;2023-02-21T15:18:01;18.10;97.70
14079;DHT22;7115;50.150;8.568;2023-02-21T15:20:30;18.10;97.70
14079;DHT22;7115;50.150;8.568;2023-02-21T15:23:01;18.00;97.70
14079;DHT22;7115;50.150;8.568;2023-02-21T15:25:30;18.00;97.70
14079;DHT22;7115;50.150;8.568;2023-02-21T15:28:03;17.90;97.70
14079;DHT22;7115;50.150;8.568;2023-02-21T15:30:38;17.80;97.80
14079;DHT22;7115;50.150;8.568;2023-02-21T15:33:17;17.80;97.90
14079;DHT22;7115;50.150;8.568;2023-02-21T15:35:48;17.70;97.80
14079;DHT22;7115;50.150;8.568;2023-02-21T15:38:22;17.60;97.90
14079;DHT22;7115;50.150;8.568;2023-02-21T15:40:54;17.60;98.00
14079;DHT22;7115;50.150;8.568;2023-02-21T15:43:29;17.40;97.90
14079;DHT22;7115;50.150;8.568;2023-02-21T15:45:59;17.60;98.00
14079;DHT22;7115;50.150;8.568;2023-02-21T15:48:27;17.50;98.00
14079;DHT22;7115;50.150;8.568;2023-02-21T15:50:59;17.40;98.10
14079;DHT22;7115;50.150;8.568;2023-02-21T15:53:28;17.30;98.20
14079;DHT22;7115;50.150;8.568;2023-02-21T15:56:15;17.20;98.70
14079;DHT22;7115;50.150;8.568;2023-02-21T16:01:42;17.20;98.50
14079;DHT22;7115;50.150;8.568;2023-02-21T16:04:20;17.10;98.50
14079;DHT22;7115;50.150;8.568;2023-02-21T16:06:50;17.10;98.50
14079;DHT22;7115;50.150;8.568;2023-02-21T16:09:25;17.00;98.60
14079;DHT22;7115;50.150;8.568;2023-02-21T16:11:57;16.90;98.80
14079;DHT22;7115;50.150;8.568;2023-02-21T16:14:33;16.70;98.90
14079;DHT22;7115;50.150;8.568;2023-02-21T16:17:19;16.70;99.00
14079;DHT22;7115;50.150;8.568;2023-02-21T16:19:49;16.60;99.10
14079;DHT22;7115;50.150;8.568;2023-02-21T16:22:25;16.50;99.10
14079;DHT22;7115;50.150;8.568;2023-02-21T16:25:10;16.50;99.20
14079;DHT22;7115;50.150;8.568;2023-02-21T16:27:39;16.30;99.30
14079;DHT22;7115;50.150;8.568;2023-02-21T16:30:13;16.10;99.50
14079;DHT22;7115;50.150;8.568;2023-02-21T16:32:42;16.00;99.70
14079;DHT22;7115;50.150;8.568;2023-02-21T16:35:15;15.80;99.80
14079;DHT22;7115;50.150;8.568;2023-02-21T16:37:47;15.80;99.90
14079;DHT22;7115;50.150;8.568;2023-02-21T16:40:17;15.60;99.90
14079;DHT22;7115;50.150;8.568;2023-02-21T16:42:48;15.60;99.90
14079;DHT22;7115;50.150;8.568;2023-02-21T16:45:15;15.50;99.90
14079;DHT22;7115;50.150;8.568;2023-02-21T16:47:42;15.50;99.90
14079;DHT22;7115;50.150;8.568;2023-02-21T16:50:17;15.40;99.90
14079;DHT22;7115;50.150;8.568;2023-02-21T16:52:45;15.30;99.90